sensor_id;sensor_type;location;lat;lon;timestamp;temperature;humidity
14359;DHT22;7263;49.418;11.064;2023-07-13T00:00:12;21.80;99.90
14359;DHT22;7263;49.418;11.064;2023-07-13T00:02:59;21.80;99.90
14359;DHT22;7263;49.418;11.064;2023-07-13T00:05:26;21.80;99.90
14359;DHT22;7263;49.418;11.064;2023-07-13T00:07:53;21.80;99.90
14359;DHT22;7263;49.418;11.064;2023-07-13T00:10:20;22.20;99.90
14359;DHT22;7263;49.418;11.064;2023-07-13T00:15:29;21.80;99.90
14359;DHT22;7263;49.418;11.064;2023-07-13T00:18:03;21.70;99.90
14359;DHT22;7263;49.418;11.064;2023-07-13T00:20:37;21.60;99.90
14359;DHT22;7263;49.418;11.064;2023-07-13T00:23:03;21.60;99.90
14359;DHT22;7263;49.418;11.064;2023-07-13T00:25:30;21.60;99.90
14359;DHT22;7263;49.418;11.064;2023-07-13T00:28:14;21.50;99.90
14359;DHT22;7263;49.418;11.064;2023-07-13T00:33:09;21.60;99.90
14359;DHT22;7263;49.418;11.064;2023-07-13T00:35:36;21.60;99.90
14359;DHT22;7263;49.418;11.064;2023-07-13T00:38:05;21.50;99.90
14359;DHT22;7263;49.418;11.064;2023-07-13T00:40:37;21.60;99.90
14359;DHT22;7263;49.418;11.064;2023-07-13T00:43:15;21.50;99.90
14359;DHT22;7263;49.418;11.064;2023-07-13T00:46:14;21.50;99.90
14359;DHT22;7263;49.418;11.064;2023-07-13T00:48:43;21.50;99.90
14359;DHT22;7263;49.418;11.064;2023-07-13T00:51:11;21.50;99.90
14359;DHT22;7263;49.418;11.064;2023-07-13T00:53:38;21.40;99.90
14359;DHT22;7263;49.418;11.064;2023-07-13T00:56:08;21.30;99.90
14359;DHT22;7263;49.418;11.064;2023-07-13T00:58:46;21.30;99.90
14359;DHT22;7263;49.418;11.064;2023-07-13T01:01:16;21.40;99.90
14359;DHT22;7263;49.418;11.064;2023-07-13T01:03:44;21.40;99.90
14359;DHT22;7263;49.418;11.064;2023-07-13T01:08:51;21.20;99.90
14359;DHT22;7263;49.418;11.064;2023-07-13T01:11:23;21.30;99.90
14359;DHT22;7263;49.418;11.064;2023-07-13T01:16:25;21.00;99.90
14359;DHT22;7263;49.418;11.064;2023-07-13T01:18:54;21.10;99.90
14359;DHT22;7263;49.418;11.064;2023-07-13T01:21:25;21.10;99.90
14359;DHT22;7263;49.418;11.064;2023-07-13T01:26:22;20.90;99.90
14359;DHT22;7263;49.418;11.064;2023-07-13T01:28:49;21.00;99.90
14359;DHT22;7263;49.418;11.064;2023-07-13T01:33:43;20.80;1.00
14359;DHT22;7263;49.418;11.064;2023-07-13T01:36:13;20.80;1.00
14359;DHT22;7263;49.418;11.064;2023-07-13T01:38:47;20.70;1.00
14359;DHT22;7263;49.418;11.064;2023-07-13T01:41:19;20.70;1.00
14359;DHT22;7263;49.418;11.064;2023-07-13T01:43:48;20.60;1.00
14359;DHT22;7263;49.418;11.064;2023-07-13T01:46:18;20.60;1.00
14359;DHT22;7263;49.418;11.064;2023-07-13T01:48:47;20.50;1.00
14359;DHT22;7263;49.418;11.064;2023-07-13T01:51:15;20.50;1.00
14359;DHT22;7263;49.418;11.064;2023-07-13T01:53:45;20.60;1.00
14359;DHT22;7263;49.418;11.064;2023-07-13T01:56:15;20.30;1.00
14359;DHT22;7263;49.418;11.064;2023-07-13T01:58:42;20.30;1.00
14359;DHT22;7263;49.418;11.064;2023-07-13T02:01:11;20.40;1.00
14359;DHT22;7263;49.418;11.064;2023-07-13T02:06:12;20.30;1.00
14359;DHT22;7263;49.418;11.064;2023-07-13T02:08:46;20.20;1.00
14359;DHT22;7263;49.418;11.064;2023-07-13T02:11:22;20.30;1.00
14359;DHT22;7263;49.418;11.064;2023-07-13T02:16:27;20.10;1.00
14359;DHT22;7263;49.418;11.064;2023-07-13T02:18:57;20.10;1.00
14359;DHT22;7263;49.418;11.064;2023-07-13T02:23:54;20.00;99.90
14359;DHT22;7263;49.418;11.064;2023-07-13T02:31:33;19.90;97.50
14359;DHT22;7263;49.418;11.064;2023-07-13T02:39:04;19.80;99.90
14359;DHT22;7263;49.418;11.064;2023-07-13T02:41:32;19.80;99.90
14359;DHT22;7263;49.418;11.064;2023-07-13T02:44:07;19.80;95.70
14359;DHT22;7263;49.418;11.064;2023-07-13T02:46:40;19.60;99.90
14359;DHT22;7263;49.418;11.064;2023-07-13T02:49:07;19.70;99.90
14359;DHT22;7263;49.418;11.064;2023-07-13T02:54:06;19.60;99.90
14359;DHT22;7263;49.418;11.064;2023-07-13T02:59:10;19.40;91.20
14359;DHT22;7263;49.418;11.064;2023-07-13T03:04:10;19.50;13.50
14359;DHT22;7263;49.418;11.064;2023-07-13T03:06:45;19.40;99.90
14359;DHT22;7263;49.418;11.064;2023-07-13T03:09:16;19.20;46.00
14359;DHT22;7263;49.418;11.064;2023-07-13T03:11:43;19.30;56.10
14359;DHT22;7263;49.418;11.064;2023-07-13T03:19:10;19.10;99.90
14359;DHT22;7263;49.418;11.064;2023-07-13T03:21:44;19.20;99.90
14359;DHT22;7263;49.418;11.064;2023-07-13T03:24:18;19.20;99.90
14359;DHT22;7263;49.418;11.064;2023-07-13T03:26:55;19.30;93.60
14359;DHT22;7263;49.418;11.064;2023-07-13T03:31:51;19.20;7.00
14359;DHT22;7263;49.418;11.064;2023-07-13T03:44:20;19.10;1.00
14359;DHT22;7263;49.418;11.064;2023-07-13T03:46:47;19.10;1.00
14359;DHT22;7263;49.418;11.064;2023-07-13T03:49:17;19.20;1.00
14359;DHT22;7263;49.418;11.064;2023-07-13T03:51:44;19.10;1.00
14359;DHT22;7263;49.418;11.064;2023-07-13T03:54:13;19.10;1.00
14359;DHT22;7263;49.418;11.064;2023-07-13T03:56:41;19.10;1.00
14359;DHT22;7263;49.418;11.064;2023-07-13T03:59:08;19.10;1.00
14359;DHT22;7263;49.418;11.064;2023-07-13T04:01:34;19.10;1.00
14359;DHT22;7263;49.418;11.064;2023-07-13T04:04:04;19.10;1.00
14359;DHT22;7263;49.418;11.064;2023-07-13T04:06:31;19.10;1.00
14359;DHT22;7263;49.418;11.064;2023-07-13T04:09:03;19.20;1.00
14359;DHT22;7263;49.418;11.064;2023-07-13T04:11:32;19.30;1.00
14359;DHT22;7263;49.418;11.064;2023-07-13T04:14:08;19.40;1.00
14359;DHT22;7263;49.418;11.064;2023-07-13T04:16:38;19.40;1.00
14359;DHT22;7263;49.418;11.064;2023-07-13T04:19:04;19.40;1.00
14359;DHT22;7263;49.418;11.064;2023-07-13T04:21:34;19.40;1.00
14359;DHT22;7263;49.418;11.064;2023-07-13T04:24:01;19.40;1.00
14359;DHT22;7263;49.418;11.064;2023-07-13T04:26:28;19.40;1.00
14359;DHT22;7263;49.418;11.064;2023-07-13T04:28:58;19.30;1.00
14359;DHT22;7263;49.418;11.064;2023-07-13T04:31:26;19.30;1.00
14359;DHT22;7263;49.418;11.064;2023-07-13T04:33:57;19.10;1.00
14359;DHT22;7263;49.418;11.064;2023-07-13T04:36:27;19.20;1.00
14359;DHT22;7263;49.418;11.064;2023-07-13T04:39:02;19.20;1.00
14359;DHT22;7263;49.418;11.064;2023-07-13T04:41:29;19.20;1.00
14359;DHT22;7263;49.418;11.064;2023-07-13T04:44:02;19.20;1.00
14359;DHT22;7263;49.418;11.064;2023-07-13T04:46:37;19.20;1.00
14359;DHT22;7263;49.418;11.064;2023-07-13T04:49:06;19.20;1.00
14359;DHT22;7263;49.418;11.064;2023-07-13T04:51:35;19.30;1.00
14359;DHT22;7263;49.418;11.064;2023-07-13T04:54:02;19.40;1.00
14359;DHT22;7263;49.418;11.064;2023-07-13T04:56:39;19.40;1.00
14359;DHT22;7263;49.418;11.064;2023-07-13T04:59:09;19.60;99.90
14359;DHT22;7263;49.418;11.064;2023-07-13T05:01:41;19.70;99.90
14359;DHT22;7263;49.418;11.064;2023-07-13T05:04:08;20.10;99.90
14359;DHT22;7263;49.418;11.064;2023-07-13T05:06:35;20.10;99.90
14359;DHT22;7263;49.418;11.064;2023-07-13T05:09:02;20.30;99.90
14359;DHT22;7263;49.418;11.064;2023-07-13T05:11:35;20.40;99.90
14359;DHT22;7263;49.418;11.064;2023-07-13T05:14:07;20.60;99.90
14359;DHT22;7263;49.418;11.064;2023-07-13T05:16:36;20.60;99.90
14359;DHT22;7263;49.418;11.064;2023-07-13T05:19:11;20.70;99.90
14359;DHT22;7263;49.418;11.064;2023-07-13T05:21:40;20.80;99.90
14359;DHT22;7263;49.418;11.064;2023-07-13T05:24:10;21.00;99.90
14359;DHT22;7263;49.418;11.064;2023-07-13T05:26:38;20.90;99.90
14359;DHT22;7263;49.418;11.064;2023-07-13T05:29:05;20.90;99.90
14359;DHT22;7263;49.418;11.064;2023-07-13T05:31:32;20.90;99.90
14359;DHT22;7263;49.418;11.064;2023-07-13T05:34:11;21.10;99.90
14359;DHT22;7263;49.418;11.064;2023-07-13T05:36:41;21.10;99.90
14359;DHT22;7263;49.418;11.064;2023-07-13T05:39:10;21.40;99.90
14359;DHT22;7263;49.418;11.064;2023-07-13T05:41:38;21.60;99.90
14359;DHT22;7263;49.418;11.064;2023-07-13T05:44:04;21.80;99.90
14359;DHT22;7263;49.418;11.064;2023-07-13T05:46:37;21.90;99.90
14359;DHT22;7263;49.418;11.064;2023-07-13T05:49:08;22.00;99.90
14359;DHT22;7263;49.418;11.064;2023-07-13T05:51:37;22.00;99.90
14359;DHT22;7263;49.418;11.064;2023-07-13T05:54:06;21.90;87.60
14359;DHT22;7263;49.418;11.064;2023-07-13T05:56:33;21.90;99.90
14359;DHT22;7263;49.418;11.064;2023-07-13T05:59:00;21.80;99.90
14359;DHT22;7263;49.418;11.064;2023-07-13T06:01:27;21.80;99.90
14359;DHT22;7263;49.418;11.064;2023-07-13T06:03:53;21.70;88.20
14359;DHT22;7263;49.418;11.064;2023-07-13T06:06:28;21.70;99.20
14359;DHT22;7263;49.418;11.064;2023-07-13T06:08:57;21.80;99.90
14359;DHT22;7263;49.418;11.064;2023-07-13T06:11:35;21.90;99.00
14359;DHT22;7263;49.418;11.064;2023-07-13T06:14:04;22.00;77.40
14359;DHT22;7263;49.418;11.064;2023-07-13T06:16:31;22.00;94.80
14359;DHT22;7263;49.418;11.064;2023-07-13T06:18:58;22.00;92.10
14359;DHT22;7263;49.418;11.064;2023-07-13T06:21:26;22.00;92.30
14359;DHT22;7263;49.418;11.064;2023-07-13T06:23:56;21.80;72.70
14359;DHT22;7263;49.418;11.064;2023-07-13T06:26:33;21.80;91.40
14359;DHT22;7263;49.418;11.064;2023-07-13T06:29:05;21.80;93.20
14359;DHT22;7263;49.418;11.064;2023-07-13T06:31:31;21.90;93.70
14359;DHT22;7263;49.418;11.064;2023-07-13T06:34:01;22.20;67.20
14359;DHT22;7263;49.418;11.064;2023-07-13T06:36:39;22.30;90.50
14359;DHT22;7263;49.418;11.064;2023-07-13T06:39:13;22.60;89.10
14359;DHT22;7263;49.418;11.064;2023-07-13T06:44:10;22.90;55.10
14359;DHT22;7263;49.418;11.064;2023-07-13T06:46:37;22.80;63.70
14359;DHT22;7263;49.418;11.064;2023-07-13T06:49:08;22.80;70.90
14359;DHT22;7263;49.418;11.064;2023-07-13T06:51:39;22.70;70.50
14359;DHT22;7263;49.418;11.064;2023-07-13T06:54:11;22.50;50.60
14359;DHT22;7263;49.418;11.064;2023-07-13T06:56:40;22.50;70.90
14359;DHT22;7263;49.418;11.064;2023-07-13T06:59:10;22.30;69.00
14359;DHT22;7263;49.418;11.064;2023-07-13T07:01:40;22.30;71.40
14359;DHT22;7263;49.418;11.064;2023-07-13T07:04:12;22.20;52.00
14359;DHT22;7263;49.418;11.064;2023-07-13T07:06:42;22.20;73.70
14359;DHT22;7263;49.418;11.064;2023-07-13T07:09:12;22.20;70.30
14359;DHT22;7263;49.418;11.064;2023-07-13T07:11:46;22.30;67.00
14359;DHT22;7263;49.418;11.064;2023-07-13T07:14:16;22.40;44.50
14359;DHT22;7263;49.418;11.064;2023-07-13T07:16:49;22.40;64.90
14359;DHT22;7263;49.418;11.064;2023-07-13T07:19:32;22.50;65.20
14359;DHT22;7263;49.418;11.064;2023-07-13T07:22:03;22.70;64.00
14359;DHT22;7263;49.418;11.064;2023-07-13T07:24:30;23.10;43.00
14359;DHT22;7263;49.418;11.064;2023-07-13T07:26:57;23.20;61.20
14359;DHT22;7263;49.418;11.064;2023-07-13T07:29:26;23.30;55.50
14359;DHT22;7263;49.418;11.064;2023-07-13T07:31:58;23.50;57.40
14359;DHT22;7263;49.418;11.064;2023-07-13T07:34:28;23.80;33.40
14359;DHT22;7263;49.418;11.064;2023-07-13T07:36:56;22.60;32.70
14359;DHT22;7263;49.418;11.064;2023-07-13T07:39:24;24.20;49.60
14359;DHT22;7263;49.418;11.064;2023-07-13T07:41:56;24.40;49.40
14359;DHT22;7263;49.418;11.064;2023-07-13T07:44:23;24.40;24.70
14359;DHT22;7263;49.418;11.064;2023-07-13T07:46:54;24.30;43.20
14359;DHT22;7263;49.418;11.064;2023-07-13T07:49:20;24.20;44.10
14359;DHT22;7263;49.418;11.064;2023-07-13T07:51:49;23.90;44.90
14359;DHT22;7263;49.418;11.064;2023-07-13T07:54:16;23.90;24.80
14359;DHT22;7263;49.418;11.064;2023-07-13T07:56:45;24.00;45.80
14359;DHT22;7263;49.418;11.064;2023-07-13T07:59:14;24.00;43.90
14359;DHT22;7263;49.418;11.064;2023-07-13T08:01:41;24.00;39.80
14359;DHT22;7263;49.418;11.064;2023-07-13T08:04:09;24.10;20.60
14359;DHT22;7263;49.418;11.064;2023-07-13T08:06:38;24.10;39.70
14359;DHT22;7263;49.418;11.064;2023-07-13T08:09:08;24.30;41.90
14359;DHT22;7263;49.418;11.064;2023-07-13T08:11:35;24.50;39.10
14359;DHT22;7263;49.418;11.064;2023-07-13T08:14:05;24.80;25.60
14359;DHT22;7263;49.418;11.064;2023-07-13T08:16:35;25.00;35.70
14359;DHT22;7263;49.418;11.064;2023-07-13T08:19:05;25.50;15.20
14359;DHT22;7263;49.418;11.064;2023-07-13T08:21:39;25.60;31.60
14359;DHT22;7263;49.418;11.064;2023-07-13T08:24:07;25.80;9.60
14359;DHT22;7263;49.418;11.064;2023-07-13T08:26:34;25.90;29.60
14359;DHT22;7263;49.418;11.064;2023-07-13T08:29:01;26.00;26.20
14359;DHT22;7263;49.418;11.064;2023-07-13T08:31:30;26.10;20.90
14359;DHT22;7263;49.418;11.064;2023-07-13T08:33:59;26.50;2.30
14359;DHT22;7263;49.418;11.064;2023-07-13T08:36:26;26.60;19.50
14359;DHT22;7263;49.418;11.064;2023-07-13T08:38:56;26.60;56.40
14359;DHT22;7263;49.418;11.064;2023-07-13T08:41:23;26.60;99.90
14359;DHT22;7263;49.418;11.064;2023-07-13T08:43:52;26.50;99.90
14359;DHT22;7263;49.418;11.064;2023-07-13T08:46:32;26.40;99.90
14359;DHT22;7263;49.418;11.064;2023-07-13T08:49:05;26.50;1.00
14359;DHT22;7263;49.418;11.064;2023-07-13T08:51:42;26.70;99.90
14359;DHT22;7263;49.418;11.064;2023-07-13T08:54:32;26.80;20.80
14359;DHT22;7263;49.418;11.064;2023-07-13T08:57:15;26.60;32.20
14359;DHT22;7263;49.418;11.064;2023-07-13T08:59:53;26.50;24.90
14359;DHT22;7263;49.418;11.064;2023-07-13T09:02:44;26.50;42.70
14359;DHT22;7263;49.418;11.064;2023-07-13T09:05:16;26.70;16.20
14359;DHT22;7263;49.418;11.064;2023-07-13T09:07:57;26.80;64.80
14359;DHT22;7263;49.418;11.064;2023-07-13T09:10:29;27.00;56.00
14359;DHT22;7263;49.418;11.064;2023-07-13T09:13:09;26.80;59.60
14359;DHT22;7263;49.418;11.064;2023-07-13T09:15:41;26.80;33.10
14359;DHT22;7263;49.418;11.064;2023-07-13T09:18:16;26.80;99.90
14359;DHT22;7263;49.418;11.064;2023-07-13T09:20:48;26.80;99.90
14359;DHT22;7263;49.418;11.064;2023-07-13T09:23:21;26.80;99.90
14359;DHT22;7263;49.418;11.064;2023-07-13T09:25:50;26.70;99.90
14359;DHT22;7263;49.418;11.064;2023-07-13T09:28:33;26.90;99.90
14359;DHT22;7263;49.418;11.064;2023-07-13T09:31:04;27.00;99.90
14359;DHT22;7263;49.418;11.064;2023-07-13T09:33:40;26.90;59.00
14359;DHT22;7263;49.418;11.064;2023-07-13T09:36:20;27.20;81.90
14359;DHT22;7263;49.418;11.064;2023-07-13T09:38:59;27.00;78.00
14359;DHT22;7263;49.418;11.064;2023-07-13T09:41:41;26.80;99.90
14359;DHT22;7263;49.418;11.064;2023-07-13T09:44:26;26.90;68.50
14359;DHT22;7263;49.418;11.064;2023-07-13T09:46:56;27.00;69.40
14359;DHT22;7263;49.418;11.064;2023-07-13T09:49:34;27.00;38.10
14359;DHT22;7263;49.418;11.064;2023-07-13T09:52:04;27.20;63.00
14359;DHT22;7263;49.418;11.064;2023-07-13T09:54:36;27.10;99.90
14359;DHT22;7263;49.418;11.064;2023-07-13T09:57:13;27.00;99.90
14359;DHT22;7263;49.418;11.064;2023-07-13T09:59:43;27.00;97.90
14359;DHT22;7263;49.418;11.064;2023-07-13T10:02:26;27.00;99.90
14359;DHT22;7263;49.418;11.064;2023-07-13T10:05:01;27.10;1.00
14359;DHT22;7263;49.418;11.064;2023-07-13T10:07:37;27.10;1.00
14359;DHT22;7263;49.418;11.064;2023-07-13T10:10:18;27.20;1.00
14359;DHT22;7263;49.418;11.064;2023-07-13T10:12:53;27.10;99.90
14359;DHT22;7263;49.418;11.064;2023-07-13T10:15:30;26.90;99.90
14359;DHT22;7263;49.418;11.064;2023-07-13T10:17:58;27.00;99.90
14359;DHT22;7263;49.418;11.064;2023-07-13T10:20:30;27.30;1.00
14359;DHT22;7263;49.418;11.064;2023-07-13T10:23:00;27.10;99.90
14359;DHT22;7263;49.418;11.064;2023-07-13T10:25:34;27.10;99.90
14359;DHT22;7263;49.418;11.064;2023-07-13T10:28:11;26.50;1.00
14359;DHT22;7263;49.418;11.064;2023-07-13T10:30:42;26.50;1.00
14359;DHT22;7263;49.418;11.064;2023-07-13T10:33:11;26.40;1.00
14359;DHT22;7263;49.418;11.064;2023-07-13T10:35:44;26.60;99.90
14359;DHT22;7263;49.418;11.064;2023-07-13T10:38:21;26.50;1.00
14359;DHT22;7263;49.418;11.064;2023-07-13T10:40:58;26.70;1.00
14359;DHT22;7263;49.418;11.064;2023-07-13T10:43:31;26.80;1.00
14359;DHT22;7263;49.418;11.064;2023-07-13T10:46:04;26.50;1.00
14359;DHT22;7263;49.418;11.064;2023-07-13T10:51:13;26.40;1.00
14359;DHT22;7263;49.418;11.064;2023-07-13T10:53:43;25.70;1.00
14359;DHT22;7263;49.418;11.064;2023-07-13T10:56:27;26.70;1.00
14359;DHT22;7263;49.418;11.064;2023-07-13T10:59:05;26.70;1.00
14359;DHT22;7263;49.418;11.064;2023-07-13T11:01:50;26.30;1.00
14359;DHT22;7263;49.418;11.064;2023-07-13T11:04:18;26.20;1.00
14359;DHT22;7263;49.418;11.064;2023-07-13T11:07:11;26.10;1.00
14359;DHT22;7263;49.418;11.064;2023-07-13T11:09:58;25.60;1.00
14359;DHT22;7263;49.418;11.064;2023-07-13T11:12:56;25.60;1.00
14359;DHT22;7263;49.418;11.064;2023-07-13T11:15:44;26.30;1.00
14359;DHT22;7263;49.418;11.064;2023-07-13T11:18:27;26.70;1.00
14359;DHT22;7263;49.418;11.064;2023-07-13T11:21:17;26.80;1.00
14359;DHT22;7263;49.418;11.064;2023-07-13T11:23:52;26.90;1.00
14359;DHT22;7263;49.418;11.064;2023-07-13T11:26:41;27.00;1.00
14359;DHT22;7263;49.418;11.064;2023-07-13T11:31:58;27.20;1.00
14359;DHT22;7263;49.418;11.064;2023-07-13T11:34:31;27.50;1.00
14359;DHT22;7263;49.418;11.064;2023-07-13T11:37:01;27.50;1.00
14359;DHT22;7263;49.418;11.064;2023-07-13T11:39:34;27.60;1.00
14359;DHT22;7263;49.418;11.064;2023-07-13T11:42:07;27.60;1.00
14359;DHT22;7263;49.418;11.064;2023-07-13T11:44:35;27.60;99.90
14359;DHT22;7263;49.418;11.064;2023-07-13T11:47:09;27.50;1.00
14359;DHT22;7263;49.418;11.064;2023-07-13T11:49:48;27.10;99.90
14359;DHT22;7263;49.418;11.064;2023-07-13T11:52:20;27.20;99.90
14359;DHT22;7263;49.418;11.064;2023-07-13T11:57:27;27.30;99.90
14359;DHT22;7263;49.418;11.064;2023-07-13T12:00:03;27.50;99.90
14359;DHT22;7263;49.418;11.064;2023-07-13T12:02:33;27.50;99.90
14359;DHT22;7263;49.418;11.064;2023-07-13T12:05:09;27.50;99.90
14359;DHT22;7263;49.418;11.064;2023-07-13T12:07:38;27.40;99.90
14359;DHT22;7263;49.418;11.064;2023-07-13T12:10:18;27.40;99.90
14359;DHT22;7263;49.418;11.064;2023-07-13T12:15:22;26.60;99.90
14359;DHT22;7263;49.418;11.064;2023-07-13T12:17:49;26.60;99.90
14359;DHT22;7263;49.418;11.064;2023-07-13T12:20:21;26.50;99.90
14359;DHT22;7263;49.418;11.064;2023-07-13T12:22:59;26.60;89.90
14359;DHT22;7263;49.418;11.064;2023-07-13T12:27:56;26.60;99.90
14359;DHT22;7263;49.418;11.064;2023-07-13T12:30:27;26.40;99.90
14359;DHT22;7263;49.418;11.064;2023-07-13T12:33:00;26.30;99.90
14359;DHT22;7263;49.418;11.064;2023-07-13T12:35:29;26.20;99.90
14359;DHT22;7263;49.418;11.064;2023-07-13T12:38:01;26.10;99.90
14359;DHT22;7263;49.418;11.064;2023-07-13T12:40:34;26.10;99.90
14359;DHT22;7263;49.418;11.064;2023-07-13T12:43:03;26.10;99.90
14359;DHT22;7263;49.418;11.064;2023-07-13T12:45:38;26.00;99.90
14359;DHT22;7263;49.418;11.064;2023-07-13T12:48:14;26.10;99.90
14359;DHT22;7263;49.418;11.064;2023-07-13T12:50:46;26.20;99.90
14359;DHT22;7263;49.418;11.064;2023-07-13T12:53:19;26.30;99.90
14359;DHT22;7263;49.418;11.064;2023-07-13T12:55:55;26.30;99.90
14359;DHT22;7263;49.418;11.064;2023-07-13T12:58:26;26.20;99.90
14359;DHT22;7263;49.418;11.064;2023-07-13T13:01:01;26.30;99.90
14359;DHT22;7263;49.418;11.064;2023-07-13T13:03:33;26.40;99.90
14359;DHT22;7263;49.418;11.064;2023-07-13T13:06:06;26.50;99.90
14359;DHT22;7263;49.418;11.064;2023-07-13T13:08:46;26.50;99.90
14359;DHT22;7263;49.418;11.064;2023-07-13T13:13:47;26.50;99.90
14359;DHT22;7263;49.418;11.064;2023-07-13T13:16:21;26.40;99.90
14359;DHT22;7263;49.418;11.064;2023-07-13T13:18:55;26.40;99.90
14359;DHT22;7263;49.418;11.064;2023-07-13T13:21:23;26.50;99.90
14359;DHT22;7263;49.418;11.064;2023-07-13T13:24:08;26.50;99.90
14359;DHT22;7263;49.418;11.064;2023-07-13T13:26:47;26.50;99.90
14359;DHT22;7263;49.418;11.064;2023-07-13T13:29:19;26.40;99.90
14359;DHT22;7263;49.418;11.064;2023-07-13T13:31:50;26.40;99.90
14359;DHT22;7263;49.418;11.064;2023-07-13T13:34:18;26.30;99.90
14359;DHT22;7263;49.418;11.064;2023-07-13T13:39:19;26.40;99.90
14359;DHT22;7263;49.418;11.064;2023-07-13T13:41:48;26.30;99.90
14359;DHT22;7263;49.418;11.064;2023-07-13T13:44:16;26.30;99.90
14359;DHT22;7263;49.418;11.064;2023-07-13T13:46:45;26.30;99.90
14359;DHT22;7263;49.418;11.064;2023-07-13T13:49:17;26.20;99.90
14359;DHT22;7263;49.418;11.064;2023-07-13T13:51:54;26.20;99.90
14359;DHT22;7263;49.418;11.064;2023-07-13T13:54:22;26.00;99.90
14359;DHT22;7263;49.418;11.064;2023-07-13T13:56:53;26.00;99.90
14359;DHT22;7263;49.418;11.064;2023-07-13T13:59:20;25.90;99.90
14359;DHT22;7263;49.418;11.064;2023-07-13T14:01:53;25.90;99.90
14359;DHT22;7263;49.418;11.064;2023-07-13T14:04:21;25.90;99.90
14359;DHT22;7263;49.418;11.064;2023-07-13T14:06:48;25.80;99.90
14359;DHT22;7263;49.418;11.064;2023-07-13T14:09:17;25.80;99.90
14359;DHT22;7263;49.418;11.064;2023-07-13T14:11:46;25.70;99.90
14359;DHT22;7263;49.418;11.064;2023-07-13T14:14:17;25.70;99.90
14359;DHT22;7263;49.418;11.064;2023-07-13T14:16:47;25.80;99.90
14359;DHT22;7263;49.418;11.064;2023-07-13T14:19:26;25.70;99.90
14359;DHT22;7263;49.418;11.064;2023-07-13T14:21:53;25.70;99.90
14359;DHT22;7263;49.418;11.064;2023-07-13T14:24:22;25.80;99.90
14359;DHT22;7263;49.418;11.064;2023-07-13T14:26:55;25.70;99.90
14359;DHT22;7263;49.418;11.064;2023-07-13T14:29:23;25.80;99.90
14359;DHT22;7263;49.418;11.064;2023-07-13T14:32:00;25.90;99.90
14359;DHT22;7263;49.418;11.064;2023-07-13T14:34:26;25.90;99.90
14359;DHT22;7263;49.418;11.064;2023-07-13T14:36:59;26.10;99.90
14359;DHT22;7263;49.418;11.064;2023-07-13T14:39:26;26.10;99.90
14359;DHT22;7263;49.418;11.064;2023-07-13T14:41:54;26.00;99.90
14359;DHT22;7263;49.418;11.064;2023-07-13T14:44:27;26.00;99.90
14359;DHT22;7263;49.418;11.064;2023-07-13T14:46:57;26.00;99.90
14359;DHT22;7263;49.418;11.064;2023-07-13T14:49:27;26.10;99.90
14359;DHT22;7263;49.418;11.064;2023-07-13T14:52:03;26.00;99.90
14359;DHT22;7263;49.418;11.064;2023-07-13T14:54:34;25.90;99.90
14359;DHT22;7263;49.418;11.064;2023-07-13T14:57:12;26.00;99.90
14359;DHT22;7263;49.418;11.064;2023-07-13T14:59:40;26.10;99.90
14359;DHT22;7263;49.418;11.064;2023-07-13T15:02:18;26.10;99.90
14359;DHT22;7263;49.418;11.064;2023-07-13T15:07:15;26.10;99.90
14359;DHT22;7263;49.418;11.064;2023-07-13T15:09:44;25.80;99.90
14359;DHT22;7263;49.418;11.064;2023-07-13T15:12:12;25.90;99.90
14359;DHT22;7263;49.418;11.064;2023-07-13T15:14:46;26.00;99.90
14359;DHT22;7263;49.418;11.064;2023-07-13T15:17:27;25.90;99.90
14359;DHT22;7263;49.418;11.064;2023-07-13T15:22:24;26.00;99.90
14359;DHT22;7263;49.418;11.064;2023-07-13T15:25:00;26.10;99.90
14359;DHT22;7263;49.418;11.064;2023-07-13T15:27:43;26.20;99.90
14359;DHT22;7263;49.418;11.064;2023-07-13T15:30:15;26.20;99.90
14359;DHT22;7263;49.418;11.064;2023-07-13T15:32:42;26.20;99.90
14359;DHT22;7263;49.418;11.064;2023-07-13T15:35:14;26.10;99.90
14359;DHT22;7263;49.418;11.064;2023-07-13T15:40:12;26.00;99.90
14359;DHT22;7263;49.418;11.064;2023-07-13T15:42:40;25.80;99.90
14359;DHT22;7263;49.418;11.064;2023-07-13T15:45:28;25.80;99.90
14359;DHT22;7263;49.418;11.064;2023-07-13T15:48:02;25.70;99.90
14359;DHT22;7263;49.418;11.064;2023-07-13T15:50:43;25.60;99.90
14359;DHT22;7263;49.418;11.064;2023-07-13T15:53:14;25.60;99.90
14359;DHT22;7263;49.418;11.064;2023-07-13T15:55:44;25.60;99.90
14359;DHT22;7263;49.418;11.064;2023-07-13T15:58:16;25.60;99.90
14359;DHT22;7263;49.418;11.064;2023-07-13T16:03:23;25.60;99.90
14359;DHT22;7263;49.418;11.064;2023-07-13T16:05:51;25.60;99.90
14359;DHT22;7263;49.418;11.064;2023-07-13T16:08:24;25.60;99.90
14359;DHT22;7263;49.418;11.064;2023-07-13T16:10:54;25.60;99.90
14359;DHT22;7263;49.418;11.064;2023-07-13T16:13:38;25.60;99.90
14359;DHT22;7263;49.418;11.064;2023-07-13T16:16:10;25.50;99.90
14359;DHT22;7263;49.418;11.064;2023-07-13T16:18:45;25.40;99.90
14359;DHT22;7263;49.418;11.064;2023-07-13T16:23:54;25.30;99.90
14359;DHT22;7263;49.418;11.064;2023-07-13T16:26:40;25.20;99.90
14359;DHT22;7263;49.418;11.064;2023-07-13T16:29:16;25.20;99.90
14359;DHT22;7263;49.418;11.064;2023-07-13T16:32:07;25.10;99.90
14359;DHT22;7263;49.418;11.064;2023-07-13T16:34:37;25.10;99.90
14359;DHT22;7263;49.418;11.064;2023-07-13T16:37:16;25.00;99.90
14359;DHT22;7263;49.418;11.064;2023-07-13T16:39:49;25.00;99.90
14359;DHT22;7263;49.418;11.064;2023-07-13T16:42:18;24.90;99.90
14359;DHT22;7263;49.418;11.064;2023-07-13T16:44:53;24.90;99.90
14359;DHT22;7263;49.418;11.064;2023-07-13T16:47:23;24.90;99.90
14359;DHT22;7263;49.418;11.064;2023-07-13T16:49:50;24.80;99.90
14359;DHT22;7263;49.418;11.064;2023-07-13T16:52:19;24.80;99.90
14359;DHT22;7263;49.418;11.064;2023-07-13T16:54:46;24.80;99.90
14359;DHT22;7263;49.418;11.064;2023-07-13T16:57:16;24.80;99.90
14359;DHT22;7263;49.418;11.064;2023-07-13T16:59:53;24.80;99.90
14359;DHT22;7263;49.418;11.064;2023-07-13T17:02:32;24.70;99.90
14359;DHT22;7263;49.418;11.064;2023-07-13T17:05:00;24.60;99.90
14359;DHT22;7263;49.418;11.064;2023-07-13T17:12:30;24.50;99.90
14359;DHT22;7263;49.418;11.064;2023-07-13T17:15:07;24.40;99.90
14359;DHT22;7263;49.418;11.064;2023-07-13T17:17:38;24.40;99.90
14359;DHT22;7263;49.418;11.064;2023-07-13T17:20:20;24.40;99.90
14359;DHT22;7263;49.418;11.064;2023-07-13T17:22:49;24.40;99.90
14359;DHT22;7263;49.418;11.064;2023-07-13T17:25:18;24.30;99.90
14359;DHT22;7263;49.418;11.064;2023-07-13T17:28:02;24.30;99.90
14359;DHT22;7263;49.418;11.064;2023-07-13T17:30:32;24.20;99.90
14359;DHT22;7263;49.418;11.064;2023-07-13T17:33:19;24.20;99.90
14359;DHT22;7263;49.418;11.064;2023-07-13T17:35:51;24.20;99.90
14359;DHT22;7263;49.418;11.064;2023-07-13T17:38:17;24.10;99.90
14359;DHT22;7263;49.418;11.064;2023-07-13T17:40:48;23.70;99.90